El Cerrito, CA (94530)

11:46 AM PDT on March 24, 2017 (GMT -0700)
El Cerrito Hills Garden | | Change Station

Elev 266 ft 37.93 °N, 122.31 °W | Updated 4 minutes ago

Rain
Rain
51.2 °F
Feels Like 51.2 °F
N
9.0
Wind Variable Wind from East
Gusts 16.0 mph

Today
High -- | Low -- °F
--% Chance of Precip.
Yesterday
High -- | Low -- °F
Precip. -- in
Pressure 30.12 in
Visibility 4.0 miles
Clouds Mostly Cloudy 3000 ft
Mostly Cloudy 5000 ft
Overcast 7000 ft
Dew Point 49 °F
Humidity 93%
Rainfall 0.00 in
Snow Depth Not available.
7:06 AM 7:25 PM
Waning Crescent, 13% visible
METAR KCCR 241753Z 18015KT 4SM -RA BKN030 BKN050 OVC070 12/08 A3015 RMK AO2 SLP197 P0004 60008 T01220078 10133 20111 53006
Pressure 30.12 in
Visibility 4.0 miles
Clouds Mostly Cloudy 3000 ft
Mostly Cloudy 5000 ft
Overcast 7000 ft
Dew Point 49 °F
Humidity 93%
Rainfall 0.00 in
Snow Depth Not available.
7:06 AM 7:25 PM
Waning Crescent, 13% visible
METAR KCCR 241753Z 18015KT 4SM -RA BKN030 BKN050 OVC070 12/08 A3015 RMK AO2 SLP197 P0004 60008 T01220078 10133 20111 53006

Get Severe Weather Alerts

Thanks for signing up!

Be on the lookout for a verification email in your inbox.

You'll start receiving the daily forecast at 8 AM.

×

10-Day Weather Forecast

Almanac

Astronomy

Mar. 24, 2017 Rise Set
Actual Time
Civil Twilight
Nautical Twilight
Astronomical Twilight
Moon
Length of Visible Light
Length of Day
Tomorrow will be .
, % of the Moon is Illuminated

Today's Extremes

State Highs State Lows

Community

WunderPhotos

Upload Photos

1,962,540 photos uploaded!

WunderBlog® & News

Nearby

Air Quality

  Air Quality AQ Index Pollutant
Not available.

Snow Depth

Station Depth Elevation

Earthquake Activity

City Distance Mag. Time & Date
Minimum magnitude displayed is 2.5.

Earthquake Activity

City Distance Mag. Time & Date
Minimum magnitude displayed is 2.5.

Coastal Water Temperatures

Place Temperature

Stations

Nearby Weather Stations

Station Location Temp. Windchill Dew Point Humidity Wind Precip. Elev Updated Type
                   

Watches & Warnings

There are currently no watches in effect.